sensor_id;sensor_type;location;lat;lon;timestamp;temperature;humidity
10802;DHT22;5453;50.852;7.102;2023-09-19T00:01:13;18.50;99.90
10802;DHT22;5453;50.852;7.102;2023-09-19T00:03:45;18.40;99.90
10802;DHT22;5453;50.852;7.102;2023-09-19T00:06:18;18.40;99.90
10802;DHT22;5453;50.852;7.102;2023-09-19T00:08:51;18.40;99.90
10802;DHT22;5453;50.852;7.102;2023-09-19T00:11:24;18.40;99.90
10802;DHT22;5453;50.852;7.102;2023-09-19T00:13:58;18.30;99.90
10802;DHT22;5453;50.852;7.102;2023-09-19T00:16:31;18.30;99.90
10802;DHT22;5453;50.852;7.102;2023-09-19T00:19:03;18.30;99.90
10802;DHT22;5453;50.852;7.102;2023-09-19T00:21:39;18.30;99.90
10802;DHT22;5453;50.852;7.102;2023-09-19T00:24:12;18.30;99.90
10802;DHT22;5453;50.852;7.102;2023-09-19T00:26:48;18.30;99.90
10802;DHT22;5453;50.852;7.102;2023-09-19T00:29:22;18.30;99.90
10802;DHT22;5453;50.852;7.102;2023-09-19T00:31:55;18.30;99.90
10802;DHT22;5453;50.852;7.102;2023-09-19T00:34:28;18.30;99.90
10802;DHT22;5453;50.852;7.102;2023-09-19T00:37:00;18.20;99.90
10802;DHT22;5453;50.852;7.102;2023-09-19T00:39:34;18.20;99.90
10802;DHT22;5453;50.852;7.102;2023-09-19T00:42:07;18.20;99.90
10802;DHT22;5453;50.852;7.102;2023-09-19T00:44:44;18.20;99.90
10802;DHT22;5453;50.852;7.102;2023-09-19T00:47:17;18.10;99.90
10802;DHT22;5453;50.852;7.102;2023-09-19T00:49:49;18.10;99.90
10802;DHT22;5453;50.852;7.102;2023-09-19T00:52:22;18.10;99.90
10802;DHT22;5453;50.852;7.102;2023-09-19T00:54:59;18.00;99.90
10802;DHT22;5453;50.852;7.102;2023-09-19T00:57:33;18.00;99.90
10802;DHT22;5453;50.852;7.102;2023-09-19T01:00:09;18.00;99.90
10802;DHT22;5453;50.852;7.102;2023-09-19T01:02:49;18.00;99.90
10802;DHT22;5453;50.852;7.102;2023-09-19T01:05:21;18.00;99.90
10802;DHT22;5453;50.852;7.102;2023-09-19T01:07:55;18.00;99.90
10802;DHT22;5453;50.852;7.102;2023-09-19T01:10:28;17.90;99.90
10802;DHT22;5453;50.852;7.102;2023-09-19T01:13:13;17.90;99.90
10802;DHT22;5453;50.852;7.102;2023-09-19T01:16:02;17.90;99.90
10802;DHT22;5453;50.852;7.102;2023-09-19T01:18:55;17.90;99.90
10802;DHT22;5453;50.852;7.102;2023-09-19T01:21:39;17.90;99.90
10802;DHT22;5453;50.852;7.102;2023-09-19T01:24:52;17.90;99.90
10802;DHT22;5453;50.852;7.102;2023-09-19T01:28:14;17.90;99.90
10802;DHT22;5453;50.852;7.102;2023-09-19T01:30:59;17.90;99.90
10802;DHT22;5453;50.852;7.102;2023-09-19T01:33:55;18.00;99.90
10802;DHT22;5453;50.852;7.102;2023-09-19T01:36:32;18.00;99.90
10802;DHT22;5453;50.852;7.102;2023-09-19T01:39:08;18.00;99.90
10802;DHT22;5453;50.852;7.102;2023-09-19T01:41:58;18.00;99.90
10802;DHT22;5453;50.852;7.102;2023-09-19T01:44:44;18.00;99.90
10802;DHT22;5453;50.852;7.102;2023-09-19T01:47:32;18.00;99.90
10802;DHT22;5453;50.852;7.102;2023-09-19T01:50:13;18.00;99.90
10802;DHT22;5453;50.852;7.102;2023-09-19T01:52:56;18.10;99.90
10802;DHT22;5453;50.852;7.102;2023-09-19T01:55:36;18.10;99.90
10802;DHT22;5453;50.852;7.102;2023-09-19T01:58:16;18.10;99.90
10802;DHT22;5453;50.852;7.102;2023-09-19T02:01:00;18.10;99.90
10802;DHT22;5453;50.852;7.102;2023-09-19T02:03:37;18.10;99.90
10802;DHT22;5453;50.852;7.102;2023-09-19T02:06:14;18.10;99.90
10802;DHT22;5453;50.852;7.102;2023-09-19T02:08:46;18.10;99.90
10802;DHT22;5453;50.852;7.102;2023-09-19T02:11:19;18.10;99.90
10802;DHT22;5453;50.852;7.102;2023-09-19T02:13:51;18.10;99.90
10802;DHT22;5453;50.852;7.102;2023-09-19T02:16:25;18.10;99.90
10802;DHT22;5453;50.852;7.102;2023-09-19T02:18:59;18.00;99.90
10802;DHT22;5453;50.852;7.102;2023-09-19T02:21:36;18.00;99.90
10802;DHT22;5453;50.852;7.102;2023-09-19T02:24:11;18.00;99.90
10802;DHT22;5453;50.852;7.102;2023-09-19T02:26:45;18.00;99.90
10802;DHT22;5453;50.852;7.102;2023-09-19T02:29:18;17.90;99.90
10802;DHT22;5453;50.852;7.102;2023-09-19T02:31:50;17.90;99.90
10802;DHT22;5453;50.852;7.102;2023-09-19T02:34:24;17.90;99.90
10802;DHT22;5453;50.852;7.102;2023-09-19T02:36:56;17.80;99.90
10802;DHT22;5453;50.852;7.102;2023-09-19T02:39:29;17.80;99.90
10802;DHT22;5453;50.852;7.102;2023-09-19T02:42:02;17.80;99.90
10802;DHT22;5453;50.852;7.102;2023-09-19T02:44:35;17.70;99.90
10802;DHT22;5453;50.852;7.102;2023-09-19T02:47:12;17.70;99.90
10802;DHT22;5453;50.852;7.102;2023-09-19T02:49:47;17.70;99.90
10802;DHT22;5453;50.852;7.102;2023-09-19T02:52:19;17.60;99.90
10802;DHT22;5453;50.852;7.102;2023-09-19T02:54:52;17.60;99.90
10802;DHT22;5453;50.852;7.102;2023-09-19T02:57:25;17.60;99.90
10802;DHT22;5453;50.852;7.102;2023-09-19T02:59:58;17.60;99.90
10802;DHT22;5453;50.852;7.102;2023-09-19T03:02:32;17.60;99.90
10802;DHT22;5453;50.852;7.102;2023-09-19T03:05:11;17.60;99.90
10802;DHT22;5453;50.852;7.102;2023-09-19T03:07:44;17.50;99.90
10802;DHT22;5453;50.852;7.102;2023-09-19T03:10:18;17.50;99.90
10802;DHT22;5453;50.852;7.102;2023-09-19T03:12:52;17.50;99.90
10802;DHT22;5453;50.852;7.102;2023-09-19T03:15:24;17.50;99.90
10802;DHT22;5453;50.852;7.102;2023-09-19T03:17:58;17.50;99.90
10802;DHT22;5453;50.852;7.102;2023-09-19T03:20:32;17.40;99.90
10802;DHT22;5453;50.852;7.102;2023-09-19T03:23:04;17.40;99.90
10802;DHT22;5453;50.852;7.102;2023-09-19T03:25:40;17.40;99.90
10802;DHT22;5453;50.852;7.102;2023-09-19T03:28:13;17.40;99.90
10802;DHT22;5453;50.852;7.102;2023-09-19T03:30:56;17.40;99.90
10802;DHT22;5453;50.852;7.102;2023-09-19T03:33:30;17.30;99.90
10802;DHT22;5453;50.852;7.102;2023-09-19T03:36:06;17.30;99.90
10802;DHT22;5453;50.852;7.102;2023-09-19T03:38:39;17.30;99.90
10802;DHT22;5453;50.852;7.102;2023-09-19T03:41:11;17.30;99.90
10802;DHT22;5453;50.852;7.102;2023-09-19T03:43:45;17.30;99.90
10802;DHT22;5453;50.852;7.102;2023-09-19T03:46:17;17.30;99.90
10802;DHT22;5453;50.852;7.102;2023-09-19T03:48:51;17.20;99.90
10802;DHT22;5453;50.852;7.102;2023-09-19T03:51:27;17.20;99.90
10802;DHT22;5453;50.852;7.102;2023-09-19T03:53:59;17.20;99.90
10802;DHT22;5453;50.852;7.102;2023-09-19T03:56:32;17.20;99.90
10802;DHT22;5453;50.852;7.102;2023-09-19T03:59:04;17.20;99.90
10802;DHT22;5453;50.852;7.102;2023-09-19T04:01:40;17.20;99.90
10802;DHT22;5453;50.852;7.102;2023-09-19T04:04:12;17.20;99.90
10802;DHT22;5453;50.852;7.102;2023-09-19T04:06:46;17.20;99.90
10802;DHT22;5453;50.852;7.102;2023-09-19T04:09:18;17.20;99.90
10802;DHT22;5453;50.852;7.102;2023-09-19T04:11:51;17.20;99.90
10802;DHT22;5453;50.852;7.102;2023-09-19T04:14:23;17.20;99.90
10802;DHT22;5453;50.852;7.102;2023-09-19T04:16:56;17.20;99.90
10802;DHT22;5453;50.852;7.102;2023-09-19T04:19:28;17.20;99.90
10802;DHT22;5453;50.852;7.102;2023-09-19T04:22:02;17.20;99.90
10802;DHT22;5453;50.852;7.102;2023-09-19T04:24:35;17.20;99.90
10802;DHT22;5453;50.852;7.102;2023-09-19T04:27:08;17.20;99.90
10802;DHT22;5453;50.852;7.102;2023-09-19T04:29:43;17.20;99.90
10802;DHT22;5453;50.852;7.102;2023-09-19T04:32:15;17.20;99.90
10802;DHT22;5453;50.852;7.102;2023-09-19T04:34:48;17.20;99.90
10802;DHT22;5453;50.852;7.102;2023-09-19T04:37:22;17.10;99.90
10802;DHT22;5453;50.852;7.102;2023-09-19T04:39:54;17.10;99.90
10802;DHT22;5453;50.852;7.102;2023-09-19T04:42:26;17.10;99.90
10802;DHT22;5453;50.852;7.102;2023-09-19T04:45:00;17.00;99.90
10802;DHT22;5453;50.852;7.102;2023-09-19T04:47:34;17.00;99.90
10802;DHT22;5453;50.852;7.102;2023-09-19T04:50:08;17.00;99.90
10802;DHT22;5453;50.852;7.102;2023-09-19T04:52:45;17.00;99.90
10802;DHT22;5453;50.852;7.102;2023-09-19T04:55:21;17.00;99.90
10802;DHT22;5453;50.852;7.102;2023-09-19T04:57:53;16.90;99.90
10802;DHT22;5453;50.852;7.102;2023-09-19T05:00:26;16.90;99.90
10802;DHT22;5453;50.852;7.102;2023-09-19T05:03:01;16.90;99.90
10802;DHT22;5453;50.852;7.102;2023-09-19T05:05:38;16.90;99.90
10802;DHT22;5453;50.852;7.102;2023-09-19T05:08:13;16.90;99.90
10802;DHT22;5453;50.852;7.102;2023-09-19T05:10:46;16.90;99.90
10802;DHT22;5453;50.852;7.102;2023-09-19T05:13:21;16.90;99.90
10802;DHT22;5453;50.852;7.102;2023-09-19T05:15:55;16.90;99.90
10802;DHT22;5453;50.852;7.102;2023-09-19T05:18:27;16.90;99.90
10802;DHT22;5453;50.852;7.102;2023-09-19T05:21:02;16.90;99.90
10802;DHT22;5453;50.852;7.102;2023-09-19T05:23:35;16.80;99.90
10802;DHT22;5453;50.852;7.102;2023-09-19T05:26:08;16.80;99.90
10802;DHT22;5453;50.852;7.102;2023-09-19T05:28:43;16.80;99.90
10802;DHT22;5453;50.852;7.102;2023-09-19T05:31:18;16.80;99.90
10802;DHT22;5453;50.852;7.102;2023-09-19T05:33:51;16.70;99.90
10802;DHT22;5453;50.852;7.102;2023-09-19T05:36:25;16.70;99.90
10802;DHT22;5453;50.852;7.102;2023-09-19T05:39:01;16.70;99.90
10802;DHT22;5453;50.852;7.102;2023-09-19T05:41:38;16.70;99.90
10802;DHT22;5453;50.852;7.102;2023-09-19T05:44:10;16.70;99.90
10802;DHT22;5453;50.852;7.102;2023-09-19T05:46:43;16.70;99.90
10802;DHT22;5453;50.852;7.102;2023-09-19T05:49:16;16.70;99.90
10802;DHT22;5453;50.852;7.102;2023-09-19T05:51:49;16.70;99.90
10802;DHT22;5453;50.852;7.102;2023-09-19T05:54:26;16.70;99.90
10802;DHT22;5453;50.852;7.102;2023-09-19T05:56:58;16.70;99.90
10802;DHT22;5453;50.852;7.102;2023-09-19T05:59:30;16.70;99.90
10802;DHT22;5453;50.852;7.102;2023-09-19T06:02:04;16.80;99.90
10802;DHT22;5453;50.852;7.102;2023-09-19T06:04:37;16.80;99.90
10802;DHT22;5453;50.852;7.102;2023-09-19T06:07:11;16.80;99.90
10802;DHT22;5453;50.852;7.102;2023-09-19T06:09:45;16.80;99.90
10802;DHT22;5453;50.852;7.102;2023-09-19T06:12:17;16.80;99.90
10802;DHT22;5453;50.852;7.102;2023-09-19T06:14:50;16.80;99.90
10802;DHT22;5453;50.852;7.102;2023-09-19T06:17:22;16.90;99.90
10802;DHT22;5453;50.852;7.102;2023-09-19T06:19:55;16.80;99.90
10802;DHT22;5453;50.852;7.102;2023-09-19T06:22:27;16.90;99.90
10802;DHT22;5453;50.852;7.102;2023-09-19T06:25:01;16.90;99.90
10802;DHT22;5453;50.852;7.102;2023-09-19T06:27:37;16.90;99.90
10802;DHT22;5453;50.852;7.102;2023-09-19T06:30:12;17.00;99.90
10802;DHT22;5453;50.852;7.102;2023-09-19T06:32:45;17.00;99.90
10802;DHT22;5453;50.852;7.102;2023-09-19T06:35:17;17.00;99.90
10802;DHT22;5453;50.852;7.102;2023-09-19T06:37:50;17.00;99.90
10802;DHT22;5453;50.852;7.102;2023-09-19T06:40:24;17.00;99.90
10802;DHT22;5453;50.852;7.102;2023-09-19T06:42:58;17.10;99.90
10802;DHT22;5453;50.852;7.102;2023-09-19T06:45:33;17.10;99.90
10802;DHT22;5453;50.852;7.102;2023-09-19T06:48:05;17.20;99.90
10802;DHT22;5453;50.852;7.102;2023-09-19T06:50:38;17.20;99.90
10802;DHT22;5453;50.852;7.102;2023-09-19T06:53:11;17.30;99.90
10802;DHT22;5453;50.852;7.102;2023-09-19T06:55:48;17.30;99.90
10802;DHT22;5453;50.852;7.102;2023-09-19T06:58:21;17.40;99.90
10802;DHT22;5453;50.852;7.102;2023-09-19T07:00:53;17.40;99.90
10802;DHT22;5453;50.852;7.102;2023-09-19T07:03:27;17.50;99.90
10802;DHT22;5453;50.852;7.102;2023-09-19T07:05:59;17.50;99.90
10802;DHT22;5453;50.852;7.102;2023-09-19T07:08:31;17.60;99.90
10802;DHT22;5453;50.852;7.102;2023-09-19T07:11:05;17.70;99.90
10802;DHT22;5453;50.852;7.102;2023-09-19T07:13:38;17.80;99.90
10802;DHT22;5453;50.852;7.102;2023-09-19T07:16:10;17.90;99.90
10802;DHT22;5453;50.852;7.102;2023-09-19T07:18:44;18.00;99.90
10802;DHT22;5453;50.852;7.102;2023-09-19T07:21:16;18.10;99.90
10802;DHT22;5453;50.852;7.102;2023-09-19T07:23:52;18.20;99.90
10802;DHT22;5453;50.852;7.102;2023-09-19T07:26:25;18.20;99.90
10802;DHT22;5453;50.852;7.102;2023-09-19T07:28:58;18.30;99.90
10802;DHT22;5453;50.852;7.102;2023-09-19T07:31:33;18.40;99.90
10802;DHT22;5453;50.852;7.102;2023-09-19T07:34:05;18.50;99.90
10802;DHT22;5453;50.852;7.102;2023-09-19T07:36:39;18.70;99.90
10802;DHT22;5453;50.852;7.102;2023-09-19T07:39:12;18.90;99.90
10802;DHT22;5453;50.852;7.102;2023-09-19T07:41:49;19.00;99.90
10802;DHT22;5453;50.852;7.102;2023-09-19T07:44:21;19.20;99.90
10802;DHT22;5453;50.852;7.102;2023-09-19T07:46:56;19.30;99.90
10802;DHT22;5453;50.852;7.102;2023-09-19T07:49:28;19.40;99.90
10802;DHT22;5453;50.852;7.102;2023-09-19T07:52:01;19.50;99.90
10802;DHT22;5453;50.852;7.102;2023-09-19T07:54:33;19.60;99.90
10802;DHT22;5453;50.852;7.102;2023-09-19T07:57:08;19.80;99.90
10802;DHT22;5453;50.852;7.102;2023-09-19T07:59:40;19.90;99.90
10802;DHT22;5453;50.852;7.102;2023-09-19T08:02:14;20.00;99.90
10802;DHT22;5453;50.852;7.102;2023-09-19T08:04:47;20.10;99.90
10802;DHT22;5453;50.852;7.102;2023-09-19T08:07:19;20.30;99.90
10802;DHT22;5453;50.852;7.102;2023-09-19T08:09:56;20.50;99.40
10802;DHT22;5453;50.852;7.102;2023-09-19T08:12:30;20.60;99.10
10802;DHT22;5453;50.852;7.102;2023-09-19T08:15:03;20.70;98.90
10802;DHT22;5453;50.852;7.102;2023-09-19T08:17:39;20.80;98.60
10802;DHT22;5453;50.852;7.102;2023-09-19T08:20:13;21.00;98.70
10802;DHT22;5453;50.852;7.102;2023-09-19T08:22:47;21.10;98.50
10802;DHT22;5453;50.852;7.102;2023-09-19T08:25:20;21.30;97.90
10802;DHT22;5453;50.852;7.102;2023-09-19T08:27:58;21.50;97.90
10802;DHT22;5453;50.852;7.102;2023-09-19T08:30:38;21.80;97.50
10802;DHT22;5453;50.852;7.102;2023-09-19T08:33:11;22.10;96.60
10802;DHT22;5453;50.852;7.102;2023-09-19T08:35:45;22.40;95.90
10802;DHT22;5453;50.852;7.102;2023-09-19T08:38:18;22.60;94.90
10802;DHT22;5453;50.852;7.102;2023-09-19T08:40:50;22.80;94.90
10802;DHT22;5453;50.852;7.102;2023-09-19T08:43:24;23.00;94.40
10802;DHT22;5453;50.852;7.102;2023-09-19T08:46:07;23.20;93.80
10802;DHT22;5453;50.852;7.102;2023-09-19T08:48:45;23.50;92.80
10802;DHT22;5453;50.852;7.102;2023-09-19T08:51:26;23.50;92.10
10802;DHT22;5453;50.852;7.102;2023-09-19T08:54:03;23.50;92.00
10802;DHT22;5453;50.852;7.102;2023-09-19T08:56:41;23.40;91.80
10802;DHT22;5453;50.852;7.102;2023-09-19T08:59:17;23.40;91.80
10802;DHT22;5453;50.852;7.102;2023-09-19T09:01:59;23.30;91.80
10802;DHT22;5453;50.852;7.102;2023-09-19T09:04:33;23.20;91.50
10802;DHT22;5453;50.852;7.102;2023-09-19T09:07:10;23.20;91.10
10802;DHT22;5453;50.852;7.102;2023-09-19T09:09:46;23.10;91.30
10802;DHT22;5453;50.852;7.102;2023-09-19T09:12:19;23.10;91.20
10802;DHT22;5453;50.852;7.102;2023-09-19T09:14:53;23.10;91.00
10802;DHT22;5453;50.852;7.102;2023-09-19T09:17:25;23.10;91.10
10802;DHT22;5453;50.852;7.102;2023-09-19T09:20:00;23.10;91.00
10802;DHT22;5453;50.852;7.102;2023-09-19T09:22:33;23.10;91.30
10802;DHT22;5453;50.852;7.102;2023-09-19T09:25:07;23.10;91.50
10802;DHT22;5453;50.852;7.102;2023-09-19T09:27:40;23.20;91.00
10802;DHT22;5453;50.852;7.102;2023-09-19T09:30:33;23.20;90.80
10802;DHT22;5453;50.852;7.102;2023-09-19T09:33:09;23.20;90.90
10802;DHT22;5453;50.852;7.102;2023-09-19T09:35:50;23.20;90.90
10802;DHT22;5453;50.852;7.102;2023-09-19T09:38:25;23.20;90.60
10802;DHT22;5453;50.852;7.102;2023-09-19T09:41:00;23.20;90.60
10802;DHT22;5453;50.852;7.102;2023-09-19T09:43:38;23.30;90.40
10802;DHT22;5453;50.852;7.102;2023-09-19T09:46:15;23.20;90.30
10802;DHT22;5453;50.852;7.102;2023-09-19T09:49:23;23.20;90.20
10802;DHT22;5453;50.852;7.102;2023-09-19T09:51:59;23.30;89.90
10802;DHT22;5453;50.852;7.102;2023-09-19T09:54:36;23.40;89.60
10802;DHT22;5453;50.852;7.102;2023-09-19T09:57:10;23.40;89.40
10802;DHT22;5453;50.852;7.102;2023-09-19T09:59:53;23.50;89.20
10802;DHT22;5453;50.852;7.102;2023-09-19T10:02:35;23.60;89.10
10802;DHT22;5453;50.852;7.102;2023-09-19T10:05:12;23.70;89.30
10802;DHT22;5453;50.852;7.102;2023-09-19T10:07:55;23.70;88.30
10802;DHT22;5453;50.852;7.102;2023-09-19T10:10:32;23.70;87.50
10802;DHT22;5453;50.852;7.102;2023-09-19T10:13:14;23.70;87.40
10802;DHT22;5453;50.852;7.102;2023-09-19T10:15:53;23.60;87.00
10802;DHT22;5453;50.852;7.102;2023-09-19T10:18:27;23.50;87.90
10802;DHT22;5453;50.852;7.102;2023-09-19T10:21:02;23.40;88.00
10802;DHT22;5453;50.852;7.102;2023-09-19T10:23:38;23.30;88.80
10802;DHT22;5453;50.852;7.102;2023-09-19T10:26:16;23.20;88.50
10802;DHT22;5453;50.852;7.102;2023-09-19T10:28:50;23.20;88.50
10802;DHT22;5453;50.852;7.102;2023-09-19T10:31:26;23.40;88.40
10802;DHT22;5453;50.852;7.102;2023-09-19T10:34:03;23.50;88.20
10802;DHT22;5453;50.852;7.102;2023-09-19T10:36:36;23.60;86.70
10802;DHT22;5453;50.852;7.102;2023-09-19T10:39:10;23.60;86.80
10802;DHT22;5453;50.852;7.102;2023-09-19T10:41:47;23.60;87.20
10802;DHT22;5453;50.852;7.102;2023-09-19T10:44:25;23.60;86.60
10802;DHT22;5453;50.852;7.102;2023-09-19T10:46:59;23.60;86.20
10802;DHT22;5453;50.852;7.102;2023-09-19T10:49:33;23.60;85.80
10802;DHT22;5453;50.852;7.102;2023-09-19T10:52:06;23.60;85.80
10802;DHT22;5453;50.852;7.102;2023-09-19T10:54:45;23.70;85.80
10802;DHT22;5453;50.852;7.102;2023-09-19T10:57:20;23.80;85.80
10802;DHT22;5453;50.852;7.102;2023-09-19T11:00:03;23.90;84.40
10802;DHT22;5453;50.852;7.102;2023-09-19T11:03:17;24.00;84.40
10802;DHT22;5453;50.852;7.102;2023-09-19T11:06:03;24.00;85.10
10802;DHT22;5453;50.852;7.102;2023-09-19T11:08:58;24.00;83.90
10802;DHT22;5453;50.852;7.102;2023-09-19T11:11:47;24.00;82.80
10802;DHT22;5453;50.852;7.102;2023-09-19T11:14:45;23.80;83.00
10802;DHT22;5453;50.852;7.102;2023-09-19T11:17:30;23.70;82.70
10802;DHT22;5453;50.852;7.102;2023-09-19T11:20:22;23.70;82.50
10802;DHT22;5453;50.852;7.102;2023-09-19T11:23:23;23.60;82.20
10802;DHT22;5453;50.852;7.102;2023-09-19T11:26:01;23.60;82.90
10802;DHT22;5453;50.852;7.102;2023-09-19T11:28:35;23.70;83.00
10802;DHT22;5453;50.852;7.102;2023-09-19T11:34:44;23.70;82.10
10802;DHT22;5453;50.852;7.102;2023-09-19T11:44:34;23.40;82.50
10802;DHT22;5453;50.852;7.102;2023-09-19T11:47:10;23.40;82.70
10802;DHT22;5453;50.852;7.102;2023-09-19T11:49:44;23.40;80.70
10802;DHT22;5453;50.852;7.102;2023-09-19T11:52:21;23.30;81.90
10802;DHT22;5453;50.852;7.102;2023-09-19T11:54:56;23.10;82.90
10802;DHT22;5453;50.852;7.102;2023-09-19T11:57:30;23.00;80.80
10802;DHT22;5453;50.852;7.102;2023-09-19T12:00:17;22.90;82.70
10802;DHT22;5453;50.852;7.102;2023-09-19T12:02:55;22.90;84.60
10802;DHT22;5453;50.852;7.102;2023-09-19T12:05:29;22.90;83.80
10802;DHT22;5453;50.852;7.102;2023-09-19T12:08:04;22.90;83.10
10802;DHT22;5453;50.852;7.102;2023-09-19T12:10:45;23.00;82.50
10802;DHT22;5453;50.852;7.102;2023-09-19T12:13:20;23.00;82.90
10802;DHT22;5453;50.852;7.102;2023-09-19T12:15:52;23.10;83.40
10802;DHT22;5453;50.852;7.102;2023-09-19T12:18:28;23.30;82.40
10802;DHT22;5453;50.852;7.102;2023-09-19T12:21:00;23.40;81.30
10802;DHT22;5453;50.852;7.102;2023-09-19T12:23:35;23.60;81.20
10802;DHT22;5453;50.852;7.102;2023-09-19T12:26:11;23.70;79.40
10802;DHT22;5453;50.852;7.102;2023-09-19T12:28:47;23.80;78.40
10802;DHT22;5453;50.852;7.102;2023-09-19T12:31:20;24.00;78.60
10802;DHT22;5453;50.852;7.102;2023-09-19T12:33:53;24.10;77.50
10802;DHT22;5453;50.852;7.102;2023-09-19T12:36:26;24.20;77.10
10802;DHT22;5453;50.852;7.102;2023-09-19T12:39:01;24.20;77.90
10802;DHT22;5453;50.852;7.102;2023-09-19T12:41:39;24.30;77.80
10802;DHT22;5453;50.852;7.102;2023-09-19T12:44:14;24.40;77.60
10802;DHT22;5453;50.852;7.102;2023-09-19T12:46:46;24.40;78.30
10802;DHT22;5453;50.852;7.102;2023-09-19T12:49:19;24.50;78.10
10802;DHT22;5453;50.852;7.102;2023-09-19T12:51:54;24.50;77.70
10802;DHT22;5453;50.852;7.102;2023-09-19T12:54:47;24.50;77.30
10802;DHT22;5453;50.852;7.102;2023-09-19T12:57:25;24.50;77.20
10802;DHT22;5453;50.852;7.102;2023-09-19T12:59:59;24.40;76.50
10802;DHT22;5453;50.852;7.102;2023-09-19T13:02:32;24.40;76.50
10802;DHT22;5453;50.852;7.102;2023-09-19T13:05:04;24.40;77.10
10802;DHT22;5453;50.852;7.102;2023-09-19T13:07:41;24.40;77.00
10802;DHT22;5453;50.852;7.102;2023-09-19T13:10:17;24.40;76.90
10802;DHT22;5453;50.852;7.102;2023-09-19T13:12:55;24.40;77.40
10802;DHT22;5453;50.852;7.102;2023-09-19T13:15:28;24.30;77.60
10802;DHT22;5453;50.852;7.102;2023-09-19T13:18:24;24.40;76.30
10802;DHT22;5453;50.852;7.102;2023-09-19T13:21:06;24.30;77.80
10802;DHT22;5453;50.852;7.102;2023-09-19T13:23:42;24.30;77.60
10802;DHT22;5453;50.852;7.102;2023-09-19T13:26:15;24.30;77.50
10802;DHT22;5453;50.852;7.102;2023-09-19T13:28:47;24.30;77.90
10802;DHT22;5453;50.852;7.102;2023-09-19T13:31:21;24.20;76.80
10802;DHT22;5453;50.852;7.102;2023-09-19T13:33:54;24.20;76.80
10802;DHT22;5453;50.852;7.102;2023-09-19T13:36:29;24.10;77.40
10802;DHT22;5453;50.852;7.102;2023-09-19T13:39:02;24.10;77.50
10802;DHT22;5453;50.852;7.102;2023-09-19T13:41:36;24.00;78.30
10802;DHT22;5453;50.852;7.102;2023-09-19T13:44:11;24.00;76.60
10802;DHT22;5453;50.852;7.102;2023-09-19T13:46:46;23.80;78.10
10802;DHT22;5453;50.852;7.102;2023-09-19T13:49:18;23.70;77.90
10802;DHT22;5453;50.852;7.102;2023-09-19T13:51:51;23.60;78.20
10802;DHT22;5453;50.852;7.102;2023-09-19T13:54:27;23.50;79.50
10802;DHT22;5453;50.852;7.102;2023-09-19T13:57:00;23.40;80.50
10802;DHT22;5453;50.852;7.102;2023-09-19T13:59:32;23.40;79.80
10802;DHT22;5453;50.852;7.102;2023-09-19T14:02:06;23.40;79.80
10802;DHT22;5453;50.852;7.102;2023-09-19T14:04:38;23.40;80.00
10802;DHT22;5453;50.852;7.102;2023-09-19T14:07:11;23.40;79.90
10802;DHT22;5453;50.852;7.102;2023-09-19T14:09:45;23.40;80.40
10802;DHT22;5453;50.852;7.102;2023-09-19T14:12:18;23.40;80.40
10802;DHT22;5453;50.852;7.102;2023-09-19T14:14:50;23.30;80.90
10802;DHT22;5453;50.852;7.102;2023-09-19T14:17:24;23.30;80.40
10802;DHT22;5453;50.852;7.102;2023-09-19T14:19:57;23.40;79.80
10802;DHT22;5453;50.852;7.102;2023-09-19T14:22:31;23.50;80.60
10802;DHT22;5453;50.852;7.102;2023-09-19T14:25:05;23.40;79.40
10802;DHT22;5453;50.852;7.102;2023-09-19T14:27:38;23.30;79.70
10802;DHT22;5453;50.852;7.102;2023-09-19T14:30:11;23.20;80.10
10802;DHT22;5453;50.852;7.102;2023-09-19T14:32:45;23.20;80.80
10802;DHT22;5453;50.852;7.102;2023-09-19T14:35:18;23.20;81.20
10802;DHT22;5453;50.852;7.102;2023-09-19T14:37:50;23.10;81.40
10802;DHT22;5453;50.852;7.102;2023-09-19T14:40:23;23.10;81.50
10802;DHT22;5453;50.852;7.102;2023-09-19T14:42:56;23.10;81.80
10802;DHT22;5453;50.852;7.102;2023-09-19T14:45:28;23.10;81.30
10802;DHT22;5453;50.852;7.102;2023-09-19T14:48:04;23.10;81.40
10802;DHT22;5453;50.852;7.102;2023-09-19T14:50:37;23.10;81.50
10802;DHT22;5453;50.852;7.102;2023-09-19T14:53:09;23.10;80.90
10802;DHT22;5453;50.852;7.102;2023-09-19T14:55:43;23.00;81.30
10802;DHT22;5453;50.852;7.102;2023-09-19T14:58:21;23.00;82.10
10802;DHT22;5453;50.852;7.102;2023-09-19T15:01:03;23.00;81.40
10802;DHT22;5453;50.852;7.102;2023-09-19T15:03:38;22.90;82.10
10802;DHT22;5453;50.852;7.102;2023-09-19T15:06:12;22.90;82.10
10802;DHT22;5453;50.852;7.102;2023-09-19T15:08:46;22.80;81.80
10802;DHT22;5453;50.852;7.102;2023-09-19T15:11:21;22.80;81.30
10802;DHT22;5453;50.852;7.102;2023-09-19T15:13:53;22.70;82.30
10802;DHT22;5453;50.852;7.102;2023-09-19T15:16:26;22.70;82.80
10802;DHT22;5453;50.852;7.102;2023-09-19T15:18:59;22.70;82.50
10802;DHT22;5453;50.852;7.102;2023-09-19T15:21:32;22.80;82.30
10802;DHT22;5453;50.852;7.102;2023-09-19T15:24:05;22.80;82.00
10802;DHT22;5453;50.852;7.102;2023-09-19T15:26:43;22.80;81.80
10802;DHT22;5453;50.852;7.102;2023-09-19T15:29:17;22.80;81.40
10802;DHT22;5453;50.852;7.102;2023-09-19T15:31:50;22.70;81.20
10802;DHT22;5453;50.852;7.102;2023-09-19T15:34:24;22.70;81.20
10802;DHT22;5453;50.852;7.102;2023-09-19T15:36:57;22.70;81.90
10802;DHT22;5453;50.852;7.102;2023-09-19T15:39:30;22.60;82.30
10802;DHT22;5453;50.852;7.102;2023-09-19T15:42:04;22.60;82.80
10802;DHT22;5453;50.852;7.102;2023-09-19T15:44:37;22.60;83.90
10802;DHT22;5453;50.852;7.102;2023-09-19T15:47:09;22.50;84.20
10802;DHT22;5453;50.852;7.102;2023-09-19T15:49:43;22.50;83.70
10802;DHT22;5453;50.852;7.102;2023-09-19T15:52:17;22.40;84.10
10802;DHT22;5453;50.852;7.102;2023-09-19T15:54:52;22.40;83.90
10802;DHT22;5453;50.852;7.102;2023-09-19T15:57:25;22.30;84.90
10802;DHT22;5453;50.852;7.102;2023-09-19T15:59:59;22.30;85.10
10802;DHT22;5453;50.852;7.102;2023-09-19T16:02:45;22.20;84.20
10802;DHT22;5453;50.852;7.102;2023-09-19T16:05:22;22.20;84.90
10802;DHT22;5453;50.852;7.102;2023-09-19T16:07:55;22.20;84.20
10802;DHT22;5453;50.852;7.102;2023-09-19T16:10:27;22.10;84.90
10802;DHT22;5453;50.852;7.102;2023-09-19T16:12:59;22.10;85.50
10802;DHT22;5453;50.852;7.102;2023-09-19T16:15:32;22.10;85.60
10802;DHT22;5453;50.852;7.102;2023-09-19T16:18:04;22.10;85.30
10802;DHT22;5453;50.852;7.102;2023-09-19T16:20:42;22.10;86.00
10802;DHT22;5453;50.852;7.102;2023-09-19T16:23:14;22.10;86.70
10802;DHT22;5453;50.852;7.102;2023-09-19T16:25:46;22.10;85.90
10802;DHT22;5453;50.852;7.102;2023-09-19T16:28:19;22.00;85.60
10802;DHT22;5453;50.852;7.102;2023-09-19T16:30:57;22.00;85.70
10802;DHT22;5453;50.852;7.102;2023-09-19T16:33:32;22.00;86.50
10802;DHT22;5453;50.852;7.102;2023-09-19T16:36:08;22.00;86.80
10802;DHT22;5453;50.852;7.102;2023-09-19T16:38:43;22.00;87.00
10802;DHT22;5453;50.852;7.102;2023-09-19T16:41:16;22.00;87.20
10802;DHT22;5453;50.852;7.102;2023-09-19T16:43:49;21.90;86.90
10802;DHT22;5453;50.852;7.102;2023-09-19T16:46:21;21.90;88.10
10802;DHT22;5453;50.852;7.102;2023-09-19T16:48:54;21.90;88.20